sensor_id;sensor_type;location;lat;lon;timestamp;temperature;humidity
4820;DHT22;2424;49.696;6.630;2023-06-10T00:01:57;19.60;99.90
4820;DHT22;2424;49.696;6.630;2023-06-10T00:07:21;19.50;99.90
4820;DHT22;2424;49.696;6.630;2023-06-10T00:12:43;19.40;99.90
4820;DHT22;2424;49.696;6.630;2023-06-10T00:18:06;19.30;99.90
4820;DHT22;2424;49.696;6.630;2023-06-10T00:23:31;19.30;99.90
4820;DHT22;2424;49.696;6.630;2023-06-10T00:28:58;19.20;99.90
4820;DHT22;2424;49.696;6.630;2023-06-10T00:34:20;19.10;99.90
4820;DHT22;2424;49.696;6.630;2023-06-10T00:39:44;19.10;99.90
4820;DHT22;2424;49.696;6.630;2023-06-10T00:45:06;19.10;99.90
4820;DHT22;2424;49.696;6.630;2023-06-10T00:50:29;19.00;99.90
4820;DHT22;2424;49.696;6.630;2023-06-10T00:55:53;18.90;99.90
4820;DHT22;2424;49.696;6.630;2023-06-10T01:01:15;18.90;99.90
4820;DHT22;2424;49.696;6.630;2023-06-10T01:06:44;18.90;99.90
4820;DHT22;2424;49.696;6.630;2023-06-10T01:12:16;19.20;99.90
4820;DHT22;2424;49.696;6.630;2023-06-10T01:17:54;19.30;99.90
4820;DHT22;2424;49.696;6.630;2023-06-10T01:23:17;19.30;99.90
4820;DHT22;2424;49.696;6.630;2023-06-10T01:28:45;19.40;99.90
4820;DHT22;2424;49.696;6.630;2023-06-10T01:34:11;19.50;99.90
4820;DHT22;2424;49.696;6.630;2023-06-10T01:39:36;19.20;99.90
4820;DHT22;2424;49.696;6.630;2023-06-10T01:44:59;18.90;99.90
4820;DHT22;2424;49.696;6.630;2023-06-10T01:50:21;18.80;99.90
4820;DHT22;2424;49.696;6.630;2023-06-10T01:55:44;18.70;99.90
4820;DHT22;2424;49.696;6.630;2023-06-10T02:01:06;18.60;99.90
4820;DHT22;2424;49.696;6.630;2023-06-10T02:06:29;18.50;99.90
4820;DHT22;2424;49.696;6.630;2023-06-10T02:11:52;18.60;99.90
4820;DHT22;2424;49.696;6.630;2023-06-10T02:17:14;18.40;99.90
4820;DHT22;2424;49.696;6.630;2023-06-10T02:22:37;18.30;99.90
4820;DHT22;2424;49.696;6.630;2023-06-10T02:28:00;18.20;99.90
4820;DHT22;2424;49.696;6.630;2023-06-10T02:33:24;18.10;99.90
4820;DHT22;2424;49.696;6.630;2023-06-10T02:38:46;17.90;99.90
4820;DHT22;2424;49.696;6.630;2023-06-10T02:44:09;17.80;99.90
4820;DHT22;2424;49.696;6.630;2023-06-10T02:49:31;17.70;99.90
4820;DHT22;2424;49.696;6.630;2023-06-10T02:54:53;17.70;99.90
4820;DHT22;2424;49.696;6.630;2023-06-10T03:00:18;17.60;99.90
4820;DHT22;2424;49.696;6.630;2023-06-10T03:05:41;17.50;99.90
4820;DHT22;2424;49.696;6.630;2023-06-10T03:11:03;17.40;99.90
4820;DHT22;2424;49.696;6.630;2023-06-10T03:16:26;17.30;99.90
4820;DHT22;2424;49.696;6.630;2023-06-10T03:22:08;17.30;99.90
4820;DHT22;2424;49.696;6.630;2023-06-10T03:27:31;17.30;99.90
4820;DHT22;2424;49.696;6.630;2023-06-10T03:32:55;17.20;99.90
4820;DHT22;2424;49.696;6.630;2023-06-10T03:38:17;17.20;99.90
4820;DHT22;2424;49.696;6.630;2023-06-10T03:43:40;17.10;99.90
4820;DHT22;2424;49.696;6.630;2023-06-10T03:49:04;17.10;99.90
4820;DHT22;2424;49.696;6.630;2023-06-10T03:54:26;17.10;99.90
4820;DHT22;2424;49.696;6.630;2023-06-10T03:59:48;17.00;99.90
4820;DHT22;2424;49.696;6.630;2023-06-10T04:05:11;17.00;99.90
4820;DHT22;2424;49.696;6.630;2023-06-10T04:10:34;16.90;99.90
4820;DHT22;2424;49.696;6.630;2023-06-10T04:15:57;16.90;99.90
4820;DHT22;2424;49.696;6.630;2023-06-10T04:21:21;16.90;99.90
4820;DHT22;2424;49.696;6.630;2023-06-10T04:26:43;16.80;99.90
4820;DHT22;2424;49.696;6.630;2023-06-10T04:32:06;16.80;99.90
4820;DHT22;2424;49.696;6.630;2023-06-10T04:37:30;16.80;99.90
4820;DHT22;2424;49.696;6.630;2023-06-10T04:42:52;16.70;99.90
4820;DHT22;2424;49.696;6.630;2023-06-10T04:48:14;16.70;99.90
4820;DHT22;2424;49.696;6.630;2023-06-10T04:53:38;16.70;99.90
4820;DHT22;2424;49.696;6.630;2023-06-10T04:59:00;16.80;99.90
4820;DHT22;2424;49.696;6.630;2023-06-10T05:04:23;16.90;99.90
4820;DHT22;2424;49.696;6.630;2023-06-10T05:09:46;17.10;99.90
4820;DHT22;2424;49.696;6.630;2023-06-10T05:15:09;17.20;99.90
4820;DHT22;2424;49.696;6.630;2023-06-10T05:20:31;17.30;99.90
4820;DHT22;2424;49.696;6.630;2023-06-10T05:25:56;17.40;99.90
4820;DHT22;2424;49.696;6.630;2023-06-10T05:31:18;17.50;99.90
4820;DHT22;2424;49.696;6.630;2023-06-10T05:36:40;17.60;99.90
4820;DHT22;2424;49.696;6.630;2023-06-10T05:42:07;17.70;99.90
4820;DHT22;2424;49.696;6.630;2023-06-10T05:47:29;17.80;99.90
4820;DHT22;2424;49.696;6.630;2023-06-10T05:52:51;17.90;99.90
4820;DHT22;2424;49.696;6.630;2023-06-10T05:58:16;18.00;99.90
4820;DHT22;2424;49.696;6.630;2023-06-10T06:03:38;18.10;99.90
4820;DHT22;2424;49.696;6.630;2023-06-10T06:09:00;18.10;99.90
4820;DHT22;2424;49.696;6.630;2023-06-10T06:14:23;18.20;99.90
4820;DHT22;2424;49.696;6.630;2023-06-10T06:19:45;18.30;99.90
4820;DHT22;2424;49.696;6.630;2023-06-10T06:25:08;18.50;99.90
4820;DHT22;2424;49.696;6.630;2023-06-10T06:30:32;18.60;99.90
4820;DHT22;2424;49.696;6.630;2023-06-10T06:35:54;18.70;99.90
4820;DHT22;2424;49.696;6.630;2023-06-10T06:41:16;18.90;99.90
4820;DHT22;2424;49.696;6.630;2023-06-10T06:46:39;19.00;99.90
4820;DHT22;2424;49.696;6.630;2023-06-10T06:52:02;19.30;99.90
4820;DHT22;2424;49.696;6.630;2023-06-10T06:57:24;19.30;99.90
4820;DHT22;2424;49.696;6.630;2023-06-10T07:02:48;19.60;99.90
4820;DHT22;2424;49.696;6.630;2023-06-10T07:08:10;19.80;99.90
4820;DHT22;2424;49.696;6.630;2023-06-10T07:13:32;19.90;99.90
4820;DHT22;2424;49.696;6.630;2023-06-10T07:18:56;20.10;99.90
4820;DHT22;2424;49.696;6.630;2023-06-10T07:24:18;20.30;99.90
4820;DHT22;2424;49.696;6.630;2023-06-10T07:29:40;20.40;99.90
4820;DHT22;2424;49.696;6.630;2023-06-10T07:35:07;20.60;99.90
4820;DHT22;2424;49.696;6.630;2023-06-10T07:40:30;20.70;99.90
4820;DHT22;2424;49.696;6.630;2023-06-10T07:45:52;20.90;99.90
4820;DHT22;2424;49.696;6.630;2023-06-10T07:51:16;21.10;99.90
4820;DHT22;2424;49.696;6.630;2023-06-10T07:56:38;21.40;99.90
4820;DHT22;2424;49.696;6.630;2023-06-10T08:02:00;21.50;99.90
4820;DHT22;2424;49.696;6.630;2023-06-10T08:07:24;21.60;99.90
4820;DHT22;2424;49.696;6.630;2023-06-10T08:12:46;21.70;99.90
4820;DHT22;2424;49.696;6.630;2023-06-10T08:18:09;21.90;99.90
4820;DHT22;2424;49.696;6.630;2023-06-10T08:23:32;22.10;99.90
4820;DHT22;2424;49.696;6.630;2023-06-10T08:28:54;22.30;99.90
4820;DHT22;2424;49.696;6.630;2023-06-10T08:34:16;22.40;99.90
4820;DHT22;2424;49.696;6.630;2023-06-10T08:39:40;22.60;99.90
4820;DHT22;2424;49.696;6.630;2023-06-10T08:45:02;22.70;99.90
4820;DHT22;2424;49.696;6.630;2023-06-10T08:50:26;23.00;99.90
4820;DHT22;2424;49.696;6.630;2023-06-10T08:55:52;23.20;99.90
4820;DHT22;2424;49.696;6.630;2023-06-10T09:01:14;23.50;99.90
4820;DHT22;2424;49.696;6.630;2023-06-10T09:06:37;23.70;99.90
4820;DHT22;2424;49.696;6.630;2023-06-10T09:12:02;23.90;99.90
4820;DHT22;2424;49.696;6.630;2023-06-10T09:17:24;24.10;99.90
4820;DHT22;2424;49.696;6.630;2023-06-10T09:22:46;24.20;99.90
4820;DHT22;2424;49.696;6.630;2023-06-10T09:28:15;24.20;99.90
4820;DHT22;2424;49.696;6.630;2023-06-10T09:33:38;24.40;99.90
4820;DHT22;2424;49.696;6.630;2023-06-10T09:39:00;24.60;99.90
4820;DHT22;2424;49.696;6.630;2023-06-10T09:44:24;24.80;99.90
4820;DHT22;2424;49.696;6.630;2023-06-10T09:49:46;25.00;99.90
4820;DHT22;2424;49.696;6.630;2023-06-10T09:55:09;25.10;99.90
4820;DHT22;2424;49.696;6.630;2023-06-10T10:00:33;25.20;99.90
4820;DHT22;2424;49.696;6.630;2023-06-10T10:05:58;25.30;99.90
4820;DHT22;2424;49.696;6.630;2023-06-10T10:11:22;25.50;99.90
4820;DHT22;2424;49.696;6.630;2023-06-10T10:16:46;25.70;99.40
4820;DHT22;2424;49.696;6.630;2023-06-10T10:22:12;25.60;99.90
4820;DHT22;2424;49.696;6.630;2023-06-10T10:27:43;25.80;99.70
4820;DHT22;2424;49.696;6.630;2023-06-10T10:33:12;26.00;99.90
4820;DHT22;2424;49.696;6.630;2023-06-10T10:38:36;26.10;99.30
4820;DHT22;2424;49.696;6.630;2023-06-10T10:43:58;26.20;97.40
4820;DHT22;2424;49.696;6.630;2023-06-10T10:49:23;26.40;96.90
4820;DHT22;2424;49.696;6.630;2023-06-10T10:54:47;26.50;94.80
4820;DHT22;2424;49.696;6.630;2023-06-10T11:00:10;26.60;93.50
4820;DHT22;2424;49.696;6.630;2023-06-10T11:05:39;26.70;97.50
4820;DHT22;2424;49.696;6.630;2023-06-10T11:11:17;26.80;97.10
4820;DHT22;2424;49.696;6.630;2023-06-10T11:16:41;26.90;96.40
4820;DHT22;2424;49.696;6.630;2023-06-10T11:22:06;27.10;96.60
4820;DHT22;2424;49.696;6.630;2023-06-10T11:27:37;27.20;94.40
4820;DHT22;2424;49.696;6.630;2023-06-10T11:32:59;27.30;95.60
4820;DHT22;2424;49.696;6.630;2023-06-10T11:38:23;27.40;94.50
4820;DHT22;2424;49.696;6.630;2023-06-10T11:43:45;27.60;93.60
4820;DHT22;2424;49.696;6.630;2023-06-10T11:49:08;27.60;92.50
4820;DHT22;2424;49.696;6.630;2023-06-10T11:54:32;27.60;92.20
4820;DHT22;2424;49.696;6.630;2023-06-10T11:59:54;27.80;92.90
4820;DHT22;2424;49.696;6.630;2023-06-10T12:05:16;27.90;92.20
4820;DHT22;2424;49.696;6.630;2023-06-10T12:10:42;27.70;93.10
4820;DHT22;2424;49.696;6.630;2023-06-10T12:16:07;27.50;89.20
4820;DHT22;2424;49.696;6.630;2023-06-10T12:21:31;27.70;93.30
4820;DHT22;2424;49.696;6.630;2023-06-10T12:26:55;28.10;91.90
4820;DHT22;2424;49.696;6.630;2023-06-10T12:32:17;28.20;90.60
4820;DHT22;2424;49.696;6.630;2023-06-10T12:37:41;28.50;94.60
4820;DHT22;2424;49.696;6.630;2023-06-10T12:43:04;28.70;91.70
4820;DHT22;2424;49.696;6.630;2023-06-10T12:48:26;28.80;90.00
4820;DHT22;2424;49.696;6.630;2023-06-10T12:53:49;28.90;91.80
4820;DHT22;2424;49.696;6.630;2023-06-10T12:59:14;29.20;91.30
4820;DHT22;2424;49.696;6.630;2023-06-10T13:04:36;29.20;90.90
4820;DHT22;2424;49.696;6.630;2023-06-10T13:09:58;29.20;89.90
4820;DHT22;2424;49.696;6.630;2023-06-10T13:15:22;28.70;91.70
4820;DHT22;2424;49.696;6.630;2023-06-10T13:20:47;29.00;91.00
4820;DHT22;2424;49.696;6.630;2023-06-10T13:26:09;28.90;88.20
4820;DHT22;2424;49.696;6.630;2023-06-10T13:31:32;28.60;90.90
4820;DHT22;2424;49.696;6.630;2023-06-10T13:36:54;28.40;91.90
4820;DHT22;2424;49.696;6.630;2023-06-10T13:42:17;28.80;90.90
4820;DHT22;2424;49.696;6.630;2023-06-10T13:47:40;29.10;91.80
4820;DHT22;2424;49.696;6.630;2023-06-10T13:53:03;29.10;91.30
4820;DHT22;2424;49.696;6.630;2023-06-10T13:58:25;29.40;91.10
4820;DHT22;2424;49.696;6.630;2023-06-10T14:03:48;29.00;91.70
4820;DHT22;2424;49.696;6.630;2023-06-10T14:09:13;28.60;91.60
4820;DHT22;2424;49.696;6.630;2023-06-10T14:14:35;28.40;92.00
4820;DHT22;2424;49.696;6.630;2023-06-10T14:19:58;28.40;90.70
4820;DHT22;2424;49.696;6.630;2023-06-10T14:25:21;28.70;89.60
4820;DHT22;2424;49.696;6.630;2023-06-10T14:30:43;29.10;91.40
4820;DHT22;2424;49.696;6.630;2023-06-10T14:36:06;29.40;91.50
4820;DHT22;2424;49.696;6.630;2023-06-10T14:41:28;29.50;90.80
4820;DHT22;2424;49.696;6.630;2023-06-10T14:46:51;29.80;91.30
4820;DHT22;2424;49.696;6.630;2023-06-10T14:52:14;29.90;87.10
4820;DHT22;2424;49.696;6.630;2023-06-10T14:57:36;29.90;90.50
4820;DHT22;2424;49.696;6.630;2023-06-10T15:02:58;30.10;88.70
4820;DHT22;2424;49.696;6.630;2023-06-10T15:08:22;30.20;85.70
4820;DHT22;2424;49.696;6.630;2023-06-10T15:13:44;30.40;87.80
4820;DHT22;2424;49.696;6.630;2023-06-10T15:19:06;30.50;87.80
4820;DHT22;2424;49.696;6.630;2023-06-10T15:24:31;30.70;89.50
4820;DHT22;2424;49.696;6.630;2023-06-10T15:29:53;30.50;86.00
4820;DHT22;2424;49.696;6.630;2023-06-10T15:35:15;30.70;87.10
4820;DHT22;2424;49.696;6.630;2023-06-10T15:40:40;30.80;86.60
4820;DHT22;2424;49.696;6.630;2023-06-10T15:46:02;30.70;85.60
4820;DHT22;2424;49.696;6.630;2023-06-10T15:51:25;30.70;83.00
4820;DHT22;2424;49.696;6.630;2023-06-10T15:56:48;30.70;85.00
4820;DHT22;2424;49.696;6.630;2023-06-10T16:02:10;30.20;80.60
4820;DHT22;2424;49.696;6.630;2023-06-10T16:07:33;30.40;84.20
4820;DHT22;2424;49.696;6.630;2023-06-10T16:12:56;30.50;80.40
4820;DHT22;2424;49.696;6.630;2023-06-10T16:18:18;30.40;78.70
4820;DHT22;2424;49.696;6.630;2023-06-10T16:23:40;30.60;82.40
4820;DHT22;2424;49.696;6.630;2023-06-10T16:29:04;30.70;85.10
4820;DHT22;2424;49.696;6.630;2023-06-10T16:34:26;30.70;84.20
4820;DHT22;2424;49.696;6.630;2023-06-10T16:39:48;30.70;83.20
4820;DHT22;2424;49.696;6.630;2023-06-10T16:45:13;30.60;85.40
4820;DHT22;2424;49.696;6.630;2023-06-10T16:50:35;30.60;85.10
4820;DHT22;2424;49.696;6.630;2023-06-10T16:55:57;30.50;84.90
4820;DHT22;2424;49.696;6.630;2023-06-10T17:01:21;30.10;83.70
4820;DHT22;2424;49.696;6.630;2023-06-10T17:06:43;29.60;83.70
4820;DHT22;2424;49.696;6.630;2023-06-10T17:12:06;29.60;81.80
4820;DHT22;2424;49.696;6.630;2023-06-10T17:17:29;29.70;83.70
4820;DHT22;2424;49.696;6.630;2023-06-10T17:22:51;29.40;85.90
4820;DHT22;2424;49.696;6.630;2023-06-10T17:28:13;29.00;86.40
4820;DHT22;2424;49.696;6.630;2023-06-10T17:33:37;29.00;82.80
4820;DHT22;2424;49.696;6.630;2023-06-10T17:38:59;29.30;85.30
4820;DHT22;2424;49.696;6.630;2023-06-10T17:44:22;29.30;82.50
4820;DHT22;2424;49.696;6.630;2023-06-10T17:49:46;29.30;84.60
4820;DHT22;2424;49.696;6.630;2023-06-10T17:55:08;29.10;86.50
4820;DHT22;2424;49.696;6.630;2023-06-10T18:00:31;28.80;87.90
4820;DHT22;2424;49.696;6.630;2023-06-10T18:05:54;28.70;88.20
4820;DHT22;2424;49.696;6.630;2023-06-10T18:11:16;28.60;89.10
4820;DHT22;2424;49.696;6.630;2023-06-10T18:16:39;28.40;85.10
4820;DHT22;2424;49.696;6.630;2023-06-10T18:22:02;28.20;86.20
4820;DHT22;2424;49.696;6.630;2023-06-10T18:27:24;28.10;87.10
4820;DHT22;2424;49.696;6.630;2023-06-10T18:32:46;28.00;87.90
4820;DHT22;2424;49.696;6.630;2023-06-10T18:38:10;27.80;87.30
4820;DHT22;2424;49.696;6.630;2023-06-10T18:43:32;27.60;87.50
4820;DHT22;2424;49.696;6.630;2023-06-10T18:48:54;27.50;89.20
4820;DHT22;2424;49.696;6.630;2023-06-10T18:54:18;27.30;90.20
4820;DHT22;2424;49.696;6.630;2023-06-10T18:59:41;27.10;91.30
4820;DHT22;2424;49.696;6.630;2023-06-10T19:05:05;26.70;92.30
4820;DHT22;2424;49.696;6.630;2023-06-10T19:10:30;26.50;92.80
4820;DHT22;2424;49.696;6.630;2023-06-10T19:15:52;26.30;93.00
4820;DHT22;2424;49.696;6.630;2023-06-10T19:21:14;26.00;93.70
4820;DHT22;2424;49.696;6.630;2023-06-10T19:26:38;25.80;93.80
4820;DHT22;2424;49.696;6.630;2023-06-10T19:32:00;25.50;94.00
4820;DHT22;2424;49.696;6.630;2023-06-10T19:37:22;25.30;94.70
4820;DHT22;2424;49.696;6.630;2023-06-10T19:42:46;25.10;95.10
4820;DHT22;2424;49.696;6.630;2023-06-10T19:48:08;24.80;95.50
4820;DHT22;2424;49.696;6.630;2023-06-10T19:53:30;24.60;96.10
4820;DHT22;2424;49.696;6.630;2023-06-10T19:58:54;24.50;96.20
4820;DHT22;2424;49.696;6.630;2023-06-10T20:04:16;24.30;96.40
4820;DHT22;2424;49.696;6.630;2023-06-10T20:09:38;24.20;96.70
4820;DHT22;2424;49.696;6.630;2023-06-10T20:15:01;24.10;97.10
4820;DHT22;2424;49.696;6.630;2023-06-10T20:20:24;23.90;97.50
4820;DHT22;2424;49.696;6.630;2023-06-10T20:25:46;23.80;97.50
4820;DHT22;2424;49.696;6.630;2023-06-10T20:31:10;23.70;97.60
4820;DHT22;2424;49.696;6.630;2023-06-10T20:36:33;23.60;98.00
4820;DHT22;2424;49.696;6.630;2023-06-10T20:41:55;23.40;98.20
4820;DHT22;2424;49.696;6.630;2023-06-10T20:47:19;23.30;98.50
4820;DHT22;2424;49.696;6.630;2023-06-10T20:52:41;23.30;98.70
4820;DHT22;2424;49.696;6.630;2023-06-10T20:58:03;23.10;99.10
4820;DHT22;2424;49.696;6.630;2023-06-10T21:03:26;23.00;99.50
4820;DHT22;2424;49.696;6.630;2023-06-10T21:08:48;22.90;99.50
4820;DHT22;2424;49.696;6.630;2023-06-10T21:14:11;22.90;99.60
4820;DHT22;2424;49.696;6.630;2023-06-10T21:19:35;22.80;99.90
4820;DHT22;2424;49.696;6.630;2023-06-10T21:24:57;22.70;99.90
4820;DHT22;2424;49.696;6.630;2023-06-10T21:30:19;22.60;99.90
4820;DHT22;2424;49.696;6.630;2023-06-10T21:35:43;22.60;99.90
4820;DHT22;2424;49.696;6.630;2023-06-10T21:41:05;22.60;99.90
4820;DHT22;2424;49.696;6.630;2023-06-10T21:46:27;22.50;99.90
4820;DHT22;2424;49.696;6.630;2023-06-10T21:51:51;22.50;99.90
4820;DHT22;2424;49.696;6.630;2023-06-10T21:57:13;22.40;99.90
4820;DHT22;2424;49.696;6.630;2023-06-10T22:02:35;22.30;99.90
4820;DHT22;2424;49.696;6.630;2023-06-10T22:07:59;22.20;99.90
4820;DHT22;2424;49.696;6.630;2023-06-10T22:13:21;22.20;99.90
4820;DHT22;2424;49.696;6.630;2023-06-10T22:18:43;22.10;99.90
4820;DHT22;2424;49.696;6.630;2023-06-10T22:24:08;22.00;99.90
4820;DHT22;2424;49.696;6.630;2023-06-10T22:29:30;21.80;99.90
4820;DHT22;2424;49.696;6.630;2023-06-10T22:34:52;21.80;99.90
4820;DHT22;2424;49.696;6.630;2023-06-10T22:40:16;21.70;99.90
4820;DHT22;2424;49.696;6.630;2023-06-10T22:45:38;21.70;99.90
4820;DHT22;2424;49.696;6.630;2023-06-10T22:51:00;21.80;99.90
4820;DHT22;2424;49.696;6.630;2023-06-10T22:56:26;21.80;99.90
4820;DHT22;2424;49.696;6.630;2023-06-10T23:01:48;21.80;99.90
4820;DHT22;2424;49.696;6.630;2023-06-10T23:07:09;21.80;99.90
4820;DHT22;2424;49.696;6.630;2023-06-10T23:12:35;21.70;99.90
4820;DHT22;2424;49.696;6.630;2023-06-10T23:17:57;21.70;99.90
4820;DHT22;2424;49.696;6.630;2023-06-10T23:23:20;21.70;99.90
4820;DHT22;2424;49.696;6.630;2023-06-10T23:28:54;21.60;99.90
4820;DHT22;2424;49.696;6.630;2023-06-10T23:34:17;21.50;99.90
4820;DHT22;2424;49.696;6.630;2023-06-10T23:39:39;21.30;99.90
4820;DHT22;2424;49.696;6.630;2023-06-10T23:45:07;21.10;99.90
4820;DHT22;2424;49.696;6.630;2023-06-10T23:50:29;21.00;99.90
4820;DHT22;2424;49.696;6.630;2023-06-10T23:55:55;20.90;99.90
